sensor_id;sensor_type;location;lat;lon;timestamp;P1;durP1;ratioP1;P2;durP2;ratioP2
7334;SDS011;3708;42.632;23.378;2023-03-13T00:02:06;6.67;;;5.03;;
7334;SDS011;3708;42.632;23.378;2023-03-13T00:04:33;5.37;;;4.33;;
7334;SDS011;3708;42.632;23.378;2023-03-13T00:07:03;5.57;;;4.27;;
7334;SDS011;3708;42.632;23.378;2023-03-13T00:09:34;8.53;;;4.77;;
7334;SDS011;3708;42.632;23.378;2023-03-13T00:12:02;6.43;;;5.43;;
7334;SDS011;3708;42.632;23.378;2023-03-13T00:14:34;4.87;;;4.27;;
7334;SDS011;3708;42.632;23.378;2023-03-13T00:17:01;7.63;;;4.83;;
7334;SDS011;3708;42.632;23.378;2023-03-13T00:19:29;15.07;;;5.80;;
7334;SDS011;3708;42.632;23.378;2023-03-13T00:21:56;9.73;;;5.97;;
7334;SDS011;3708;42.632;23.378;2023-03-13T00:24:22;5.80;;;4.63;;
7334;SDS011;3708;42.632;23.378;2023-03-13T00:26:49;8.27;;;4.70;;
7334;SDS011;3708;42.632;23.378;2023-03-13T00:29:16;8.67;;;5.40;;
7334;SDS011;3708;42.632;23.378;2023-03-13T00:31:43;8.80;;;5.50;;
7334;SDS011;3708;42.632;23.378;2023-03-13T00:34:10;7.13;;;5.17;;
7334;SDS011;3708;42.632;23.378;2023-03-13T00:36:38;7.07;;;4.83;;
7334;SDS011;3708;42.632;23.378;2023-03-13T00:39:05;7.87;;;4.73;;
7334;SDS011;3708;42.632;23.378;2023-03-13T00:41:32;8.00;;;5.47;;
7334;SDS011;3708;42.632;23.378;2023-03-13T00:43:59;6.20;;;4.70;;
7334;SDS011;3708;42.632;23.378;2023-03-13T00:46:27;6.57;;;4.57;;
7334;SDS011;3708;42.632;23.378;2023-03-13T00:48:55;7.30;;;5.23;;
7334;SDS011;3708;42.632;23.378;2023-03-13T00:51:22;6.97;;;5.07;;
7334;SDS011;3708;42.632;23.378;2023-03-13T00:53:52;6.83;;;4.90;;
7334;SDS011;3708;42.632;23.378;2023-03-13T00:56:19;11.20;;;5.10;;
7334;SDS011;3708;42.632;23.378;2023-03-13T00:58:47;8.00;;;4.93;;
7334;SDS011;3708;42.632;23.378;2023-03-13T01:01:16;7.53;;;5.20;;
7334;SDS011;3708;42.632;23.378;2023-03-13T01:03:45;6.00;;;4.50;;
7334;SDS011;3708;42.632;23.378;2023-03-13T01:06:14;7.40;;;5.33;;
7334;SDS011;3708;42.632;23.378;2023-03-13T01:08:43;8.80;;;4.97;;
7334;SDS011;3708;42.632;23.378;2023-03-13T01:11:12;6.13;;;4.40;;
7334;SDS011;3708;42.632;23.378;2023-03-13T01:13:40;6.60;;;4.93;;
7334;SDS011;3708;42.632;23.378;2023-03-13T01:16:08;5.93;;;4.57;;
7334;SDS011;3708;42.632;23.378;2023-03-13T01:18:39;8.63;;;5.20;;
7334;SDS011;3708;42.632;23.378;2023-03-13T01:21:07;6.50;;;5.40;;
7334;SDS011;3708;42.632;23.378;2023-03-13T01:23:34;9.80;;;5.00;;
7334;SDS011;3708;42.632;23.378;2023-03-13T01:26:02;6.83;;;5.17;;
7334;SDS011;3708;42.632;23.378;2023-03-13T01:28:32;6.37;;;4.90;;
7334;SDS011;3708;42.632;23.378;2023-03-13T01:31:00;12.97;;;4.90;;
7334;SDS011;3708;42.632;23.378;2023-03-13T01:33:26;6.60;;;5.03;;
7334;SDS011;3708;42.632;23.378;2023-03-13T01:35:59;5.40;;;4.40;;
7334;SDS011;3708;42.632;23.378;2023-03-13T01:38:26;7.63;;;5.33;;
7334;SDS011;3708;42.632;23.378;2023-03-13T01:40:53;5.97;;;5.00;;
7334;SDS011;3708;42.632;23.378;2023-03-13T01:43:21;11.33;;;5.43;;
7334;SDS011;3708;42.632;23.378;2023-03-13T01:45:53;7.20;;;4.40;;
7334;SDS011;3708;42.632;23.378;2023-03-13T01:48:32;8.17;;;5.00;;
7334;SDS011;3708;42.632;23.378;2023-03-13T01:51:03;7.70;;;4.90;;
7334;SDS011;3708;42.632;23.378;2023-03-13T01:53:33;7.27;;;4.93;;
7334;SDS011;3708;42.632;23.378;2023-03-13T01:56:03;8.03;;;5.40;;
7334;SDS011;3708;42.632;23.378;2023-03-13T01:58:34;8.17;;;5.33;;
7334;SDS011;3708;42.632;23.378;2023-03-13T02:01:03;8.70;;;5.43;;
7334;SDS011;3708;42.632;23.378;2023-03-13T02:03:31;7.70;;;4.83;;
7334;SDS011;3708;42.632;23.378;2023-03-13T02:06:01;7.07;;;4.90;;
7334;SDS011;3708;42.632;23.378;2023-03-13T02:08:30;7.53;;;5.20;;
7334;SDS011;3708;42.632;23.378;2023-03-13T02:11:02;8.23;;;5.00;;
7334;SDS011;3708;42.632;23.378;2023-03-13T02:13:34;14.23;;;7.00;;
7334;SDS011;3708;42.632;23.378;2023-03-13T02:16:01;11.10;;;6.90;;
7334;SDS011;3708;42.632;23.378;2023-03-13T02:18:29;9.60;;;6.00;;
7334;SDS011;3708;42.632;23.378;2023-03-13T02:20:59;10.03;;;6.17;;
7334;SDS011;3708;42.632;23.378;2023-03-13T02:23:32;9.53;;;6.13;;
7334;SDS011;3708;42.632;23.378;2023-03-13T02:26:05;11.57;;;6.17;;
7334;SDS011;3708;42.632;23.378;2023-03-13T02:28:33;8.57;;;5.90;;
7334;SDS011;3708;42.632;23.378;2023-03-13T02:31:03;8.07;;;5.43;;
7334;SDS011;3708;42.632;23.378;2023-03-13T02:33:31;9.53;;;5.90;;
7334;SDS011;3708;42.632;23.378;2023-03-13T02:36:02;8.97;;;4.97;;
7334;SDS011;3708;42.632;23.378;2023-03-13T02:38:32;8.67;;;5.63;;
7334;SDS011;3708;42.632;23.378;2023-03-13T02:41:14;7.67;;;4.97;;
7334;SDS011;3708;42.632;23.378;2023-03-13T02:43:43;12.00;;;6.17;;
7334;SDS011;3708;42.632;23.378;2023-03-13T02:46:11;8.57;;;5.63;;
7334;SDS011;3708;42.632;23.378;2023-03-13T02:48:39;7.93;;;4.97;;
7334;SDS011;3708;42.632;23.378;2023-03-13T02:51:27;4.37;;;3.97;;
7334;SDS011;3708;42.632;23.378;2023-03-13T02:53:57;7.07;;;4.73;;
7334;SDS011;3708;42.632;23.378;2023-03-13T02:56:28;6.10;;;4.57;;
7334;SDS011;3708;42.632;23.378;2023-03-13T02:58:59;5.60;;;4.37;;
7334;SDS011;3708;42.632;23.378;2023-03-13T03:01:26;5.80;;;4.20;;
7334;SDS011;3708;42.632;23.378;2023-03-13T03:03:52;5.93;;;4.83;;
7334;SDS011;3708;42.632;23.378;2023-03-13T03:06:19;5.20;;;4.17;;
7334;SDS011;3708;42.632;23.378;2023-03-13T03:08:46;6.13;;;4.30;;
7334;SDS011;3708;42.632;23.378;2023-03-13T03:11:13;8.80;;;4.67;;
7334;SDS011;3708;42.632;23.378;2023-03-13T03:13:42;5.87;;;4.73;;
7334;SDS011;3708;42.632;23.378;2023-03-13T03:16:09;5.70;;;3.93;;
7334;SDS011;3708;42.632;23.378;2023-03-13T03:18:39;7.27;;;4.33;;
7334;SDS011;3708;42.632;23.378;2023-03-13T03:21:06;5.50;;;4.10;;
7334;SDS011;3708;42.632;23.378;2023-03-13T03:23:33;8.33;;;5.00;;
7334;SDS011;3708;42.632;23.378;2023-03-13T03:26:01;7.50;;;4.57;;
7334;SDS011;3708;42.632;23.378;2023-03-13T03:28:29;7.93;;;5.00;;
7334;SDS011;3708;42.632;23.378;2023-03-13T03:30:59;6.57;;;4.77;;
7334;SDS011;3708;42.632;23.378;2023-03-13T03:33:29;7.00;;;5.00;;
7334;SDS011;3708;42.632;23.378;2023-03-13T03:35:58;6.90;;;4.10;;
7334;SDS011;3708;42.632;23.378;2023-03-13T03:38:25;7.83;;;4.53;;
7334;SDS011;3708;42.632;23.378;2023-03-13T03:40:52;8.10;;;4.77;;
7334;SDS011;3708;42.632;23.378;2023-03-13T03:43:18;8.10;;;4.60;;
7334;SDS011;3708;42.632;23.378;2023-03-13T03:45:45;6.73;;;4.80;;
7334;SDS011;3708;42.632;23.378;2023-03-13T03:48:13;6.20;;;4.00;;
7334;SDS011;3708;42.632;23.378;2023-03-13T03:50:40;6.53;;;4.90;;
7334;SDS011;3708;42.632;23.378;2023-03-13T03:53:07;5.97;;;4.43;;
7334;SDS011;3708;42.632;23.378;2023-03-13T03:55:34;6.27;;;4.70;;
7334;SDS011;3708;42.632;23.378;2023-03-13T03:58:01;7.07;;;4.57;;
7334;SDS011;3708;42.632;23.378;2023-03-13T04:00:28;10.07;;;5.10;;
7334;SDS011;3708;42.632;23.378;2023-03-13T04:02:55;7.37;;;4.70;;
7334;SDS011;3708;42.632;23.378;2023-03-13T04:05:23;6.00;;;4.50;;
7334;SDS011;3708;42.632;23.378;2023-03-13T04:07:50;8.17;;;4.70;;
7334;SDS011;3708;42.632;23.378;2023-03-13T04:10:17;9.90;;;5.40;;
7334;SDS011;3708;42.632;23.378;2023-03-13T04:12:44;7.07;;;4.53;;
7334;SDS011;3708;42.632;23.378;2023-03-13T04:15:11;7.50;;;5.10;;
7334;SDS011;3708;42.632;23.378;2023-03-13T04:17:38;9.70;;;5.47;;
7334;SDS011;3708;42.632;23.378;2023-03-13T04:20:05;7.50;;;4.80;;
7334;SDS011;3708;42.632;23.378;2023-03-13T04:22:34;10.23;;;5.10;;
7334;SDS011;3708;42.632;23.378;2023-03-13T04:25:01;7.10;;;4.97;;
7334;SDS011;3708;42.632;23.378;2023-03-13T04:27:27;10.57;;;5.73;;
7334;SDS011;3708;42.632;23.378;2023-03-13T04:29:54;9.57;;;5.77;;
7334;SDS011;3708;42.632;23.378;2023-03-13T04:32:21;9.63;;;6.10;;
7334;SDS011;3708;42.632;23.378;2023-03-13T04:34:48;11.00;;;7.57;;
7334;SDS011;3708;42.632;23.378;2023-03-13T04:37:15;11.70;;;6.90;;
7334;SDS011;3708;42.632;23.378;2023-03-13T04:39:43;12.33;;;6.93;;
7334;SDS011;3708;42.632;23.378;2023-03-13T04:42:11;10.60;;;6.30;;
7334;SDS011;3708;42.632;23.378;2023-03-13T04:44:38;13.20;;;8.20;;
7334;SDS011;3708;42.632;23.378;2023-03-13T04:47:05;17.43;;;8.87;;
7334;SDS011;3708;42.632;23.378;2023-03-13T04:49:32;12.57;;;8.53;;
7334;SDS011;3708;42.632;23.378;2023-03-13T04:52:00;14.53;;;9.13;;
7334;SDS011;3708;42.632;23.378;2023-03-13T04:54:27;11.57;;;7.93;;
7334;SDS011;3708;42.632;23.378;2023-03-13T04:56:56;15.60;;;8.57;;
7334;SDS011;3708;42.632;23.378;2023-03-13T04:59:23;14.23;;;8.57;;
7334;SDS011;3708;42.632;23.378;2023-03-13T05:01:50;15.17;;;9.40;;
7334;SDS011;3708;42.632;23.378;2023-03-13T05:04:17;13.23;;;8.40;;
7334;SDS011;3708;42.632;23.378;2023-03-13T05:06:44;14.77;;;8.33;;
7334;SDS011;3708;42.632;23.378;2023-03-13T05:09:10;14.13;;;9.00;;
7334;SDS011;3708;42.632;23.378;2023-03-13T05:11:37;15.67;;;8.63;;
7334;SDS011;3708;42.632;23.378;2023-03-13T05:14:07;24.77;;;13.87;;
7334;SDS011;3708;42.632;23.378;2023-03-13T05:16:35;17.77;;;10.30;;
7334;SDS011;3708;42.632;23.378;2023-03-13T05:19:02;17.67;;;11.33;;
7334;SDS011;3708;42.632;23.378;2023-03-13T05:21:29;13.30;;;8.57;;
7334;SDS011;3708;42.632;23.378;2023-03-13T05:23:56;15.13;;;9.53;;
7334;SDS011;3708;42.632;23.378;2023-03-13T05:26:23;13.73;;;8.83;;
7334;SDS011;3708;42.632;23.378;2023-03-13T05:28:50;14.50;;;7.57;;
7334;SDS011;3708;42.632;23.378;2023-03-13T05:31:19;11.70;;;8.50;;
7334;SDS011;3708;42.632;23.378;2023-03-13T05:33:45;12.07;;;9.03;;
7334;SDS011;3708;42.632;23.378;2023-03-13T05:36:12;16.03;;;9.63;;
7334;SDS011;3708;42.632;23.378;2023-03-13T05:38:39;13.27;;;8.80;;
7334;SDS011;3708;42.632;23.378;2023-03-13T05:41:06;15.33;;;8.00;;
7334;SDS011;3708;42.632;23.378;2023-03-13T05:43:33;15.93;;;8.10;;
7334;SDS011;3708;42.632;23.378;2023-03-13T05:46:00;13.00;;;8.00;;
7334;SDS011;3708;42.632;23.378;2023-03-13T05:48:28;15.07;;;9.17;;
7334;SDS011;3708;42.632;23.378;2023-03-13T05:50:55;12.73;;;7.87;;
7334;SDS011;3708;42.632;23.378;2023-03-13T05:53:22;12.40;;;7.33;;
7334;SDS011;3708;42.632;23.378;2023-03-13T05:55:49;9.23;;;6.70;;
7334;SDS011;3708;42.632;23.378;2023-03-13T05:58:16;10.00;;;6.80;;
7334;SDS011;3708;42.632;23.378;2023-03-13T06:00:43;13.67;;;7.10;;
7334;SDS011;3708;42.632;23.378;2023-03-13T06:03:10;11.67;;;7.10;;
7334;SDS011;3708;42.632;23.378;2023-03-13T06:05:38;10.50;;;7.03;;
7334;SDS011;3708;42.632;23.378;2023-03-13T06:08:05;10.63;;;6.87;;
7334;SDS011;3708;42.632;23.378;2023-03-13T06:10:32;10.73;;;6.97;;
7334;SDS011;3708;42.632;23.378;2023-03-13T06:12:59;9.77;;;7.10;;
7334;SDS011;3708;42.632;23.378;2023-03-13T06:15:26;15.43;;;7.13;;
7334;SDS011;3708;42.632;23.378;2023-03-13T06:17:53;12.63;;;6.97;;
7334;SDS011;3708;42.632;23.378;2023-03-13T06:20:20;12.83;;;7.70;;
7334;SDS011;3708;42.632;23.378;2023-03-13T06:22:49;10.33;;;7.77;;
7334;SDS011;3708;42.632;23.378;2023-03-13T06:25:16;10.40;;;6.83;;
7334;SDS011;3708;42.632;23.378;2023-03-13T06:27:42;13.77;;;7.53;;
7334;SDS011;3708;42.632;23.378;2023-03-13T06:30:09;9.60;;;6.57;;
7334;SDS011;3708;42.632;23.378;2023-03-13T06:32:37;12.27;;;7.80;;
7334;SDS011;3708;42.632;23.378;2023-03-13T06:35:04;9.37;;;7.10;;
7334;SDS011;3708;42.632;23.378;2023-03-13T06:37:32;9.07;;;6.90;;
7334;SDS011;3708;42.632;23.378;2023-03-13T06:40:00;11.40;;;6.63;;
7334;SDS011;3708;42.632;23.378;2023-03-13T06:42:28;9.13;;;6.97;;
7334;SDS011;3708;42.632;23.378;2023-03-13T06:44:55;10.83;;;7.37;;
7334;SDS011;3708;42.632;23.378;2023-03-13T06:47:22;8.60;;;6.97;;
7334;SDS011;3708;42.632;23.378;2023-03-13T06:49:49;11.93;;;7.60;;
7334;SDS011;3708;42.632;23.378;2023-03-13T06:52:16;6.97;;;5.90;;
7334;SDS011;3708;42.632;23.378;2023-03-13T06:54:42;9.10;;;6.23;;
7334;SDS011;3708;42.632;23.378;2023-03-13T06:57:11;14.13;;;6.93;;
7334;SDS011;3708;42.632;23.378;2023-03-13T06:59:39;11.97;;;6.87;;
7334;SDS011;3708;42.632;23.378;2023-03-13T07:02:05;11.27;;;6.83;;
7334;SDS011;3708;42.632;23.378;2023-03-13T07:04:34;9.63;;;7.20;;
7334;SDS011;3708;42.632;23.378;2023-03-13T07:07:01;8.33;;;7.03;;
7334;SDS011;3708;42.632;23.378;2023-03-13T07:09:29;11.23;;;7.27;;
7334;SDS011;3708;42.632;23.378;2023-03-13T07:11:56;8.27;;;6.70;;
7334;SDS011;3708;42.632;23.378;2023-03-13T07:14:25;21.17;;;8.07;;
7334;SDS011;3708;42.632;23.378;2023-03-13T07:16:52;13.30;;;7.20;;
7334;SDS011;3708;42.632;23.378;2023-03-13T07:19:19;9.03;;;6.27;;
7334;SDS011;3708;42.632;23.378;2023-03-13T07:21:45;9.47;;;6.83;;
7334;SDS011;3708;42.632;23.378;2023-03-13T07:24:13;11.50;;;7.10;;
7334;SDS011;3708;42.632;23.378;2023-03-13T07:26:40;12.47;;;7.43;;
7334;SDS011;3708;42.632;23.378;2023-03-13T07:29:07;14.90;;;7.77;;
7334;SDS011;3708;42.632;23.378;2023-03-13T07:31:35;12.10;;;8.00;;
7334;SDS011;3708;42.632;23.378;2023-03-13T07:34:03;9.00;;;7.57;;
7334;SDS011;3708;42.632;23.378;2023-03-13T07:36:30;10.83;;;7.97;;
7334;SDS011;3708;42.632;23.378;2023-03-13T07:38:59;10.07;;;7.67;;
7334;SDS011;3708;42.632;23.378;2023-03-13T07:41:26;11.70;;;7.93;;
7334;SDS011;3708;42.632;23.378;2023-03-13T07:43:53;10.67;;;8.10;;
7334;SDS011;3708;42.632;23.378;2023-03-13T07:46:19;13.33;;;7.73;;
7334;SDS011;3708;42.632;23.378;2023-03-13T07:48:48;14.67;;;8.43;;
7334;SDS011;3708;42.632;23.378;2023-03-13T07:51:17;16.43;;;9.67;;
7334;SDS011;3708;42.632;23.378;2023-03-13T07:53:45;22.30;;;11.90;;
7334;SDS011;3708;42.632;23.378;2023-03-13T07:56:14;16.70;;;9.70;;
7334;SDS011;3708;42.632;23.378;2023-03-13T07:58:42;19.00;;;11.07;;
7334;SDS011;3708;42.632;23.378;2023-03-13T08:01:10;17.87;;;10.83;;
7334;SDS011;3708;42.632;23.378;2023-03-13T08:03:38;16.40;;;11.30;;
7334;SDS011;3708;42.632;23.378;2023-03-13T08:06:07;16.73;;;11.00;;
7334;SDS011;3708;42.632;23.378;2023-03-13T08:08:35;21.70;;;11.93;;
7334;SDS011;3708;42.632;23.378;2023-03-13T08:11:03;15.73;;;10.90;;
7334;SDS011;3708;42.632;23.378;2023-03-13T08:13:32;21.83;;;11.20;;
7334;SDS011;3708;42.632;23.378;2023-03-13T08:16:01;15.07;;;10.87;;
7334;SDS011;3708;42.632;23.378;2023-03-13T08:18:32;17.30;;;11.80;;
7334;SDS011;3708;42.632;23.378;2023-03-13T08:21:00;20.73;;;11.90;;
7334;SDS011;3708;42.632;23.378;2023-03-13T08:23:29;18.17;;;11.87;;
7334;SDS011;3708;42.632;23.378;2023-03-13T08:26:00;19.23;;;12.00;;
7334;SDS011;3708;42.632;23.378;2023-03-13T08:28:28;18.10;;;11.97;;
7334;SDS011;3708;42.632;23.378;2023-03-13T08:30:55;21.20;;;12.03;;
7334;SDS011;3708;42.632;23.378;2023-03-13T08:33:22;21.13;;;12.27;;
7334;SDS011;3708;42.632;23.378;2023-03-13T08:35:54;21.83;;;12.50;;
7334;SDS011;3708;42.632;23.378;2023-03-13T08:38:29;17.77;;;12.33;;
7334;SDS011;3708;42.632;23.378;2023-03-13T08:41:07;17.87;;;11.50;;
7334;SDS011;3708;42.632;23.378;2023-03-13T08:43:36;21.73;;;11.57;;
7334;SDS011;3708;42.632;23.378;2023-03-13T08:46:03;19.47;;;11.50;;
7334;SDS011;3708;42.632;23.378;2023-03-13T08:48:30;15.10;;;11.40;;
7334;SDS011;3708;42.632;23.378;2023-03-13T08:50:59;21.00;;;12.10;;
7334;SDS011;3708;42.632;23.378;2023-03-13T08:53:27;18.50;;;11.83;;
7334;SDS011;3708;42.632;23.378;2023-03-13T08:55:55;18.23;;;11.90;;
7334;SDS011;3708;42.632;23.378;2023-03-13T08:58:25;16.90;;;11.07;;
7334;SDS011;3708;42.632;23.378;2023-03-13T09:00:53;15.23;;;10.40;;
7334;SDS011;3708;42.632;23.378;2023-03-13T09:03:20;14.73;;;10.60;;
7334;SDS011;3708;42.632;23.378;2023-03-13T09:05:47;11.90;;;9.90;;
7334;SDS011;3708;42.632;23.378;2023-03-13T09:08:13;18.97;;;10.40;;
7334;SDS011;3708;42.632;23.378;2023-03-13T09:10:40;16.53;;;10.33;;
7334;SDS011;3708;42.632;23.378;2023-03-13T09:13:09;15.93;;;11.47;;
7334;SDS011;3708;42.632;23.378;2023-03-13T09:15:35;22.97;;;10.93;;
7334;SDS011;3708;42.632;23.378;2023-03-13T09:18:05;17.00;;;11.37;;
7334;SDS011;3708;42.632;23.378;2023-03-13T09:20:32;14.13;;;10.43;;
7334;SDS011;3708;42.632;23.378;2023-03-13T09:22:58;12.73;;;10.17;;
7334;SDS011;3708;42.632;23.378;2023-03-13T09:25:25;13.70;;;9.50;;
7334;SDS011;3708;42.632;23.378;2023-03-13T09:27:52;11.77;;;9.63;;
7334;SDS011;3708;42.632;23.378;2023-03-13T09:30:20;17.47;;;9.73;;
7334;SDS011;3708;42.632;23.378;2023-03-13T09:32:47;15.80;;;9.67;;
7334;SDS011;3708;42.632;23.378;2023-03-13T09:35:14;13.40;;;9.40;;
7334;SDS011;3708;42.632;23.378;2023-03-13T09:37:41;15.23;;;10.80;;
7334;SDS011;3708;42.632;23.378;2023-03-13T09:40:09;12.37;;;9.90;;
7334;SDS011;3708;42.632;23.378;2023-03-13T09:42:43;13.63;;;9.43;;
7334;SDS011;3708;42.632;23.378;2023-03-13T09:45:14;12.17;;;9.53;;
7334;SDS011;3708;42.632;23.378;2023-03-13T09:47:49;12.73;;;9.70;;
7334;SDS011;3708;42.632;23.378;2023-03-13T09:50:20;14.67;;;9.70;;
7334;SDS011;3708;42.632;23.378;2023-03-13T09:52:52;16.37;;;10.03;;
7334;SDS011;3708;42.632;23.378;2023-03-13T09:55:23;18.47;;;9.70;;
7334;SDS011;3708;42.632;23.378;2023-03-13T09:57:54;13.27;;;10.33;;
7334;SDS011;3708;42.632;23.378;2023-03-13T10:00:26;15.30;;;9.80;;
7334;SDS011;3708;42.632;23.378;2023-03-13T10:02:59;14.37;;;10.37;;
7334;SDS011;3708;42.632;23.378;2023-03-13T10:05:32;20.17;;;10.33;;
7334;SDS011;3708;42.632;23.378;2023-03-13T10:08:00;14.23;;;10.30;;
7334;SDS011;3708;42.632;23.378;2023-03-13T10:10:39;16.33;;;10.40;;
7334;SDS011;3708;42.632;23.378;2023-03-13T10:13:12;14.00;;;9.60;;
7334;SDS011;3708;42.632;23.378;2023-03-13T10:15:45;14.10;;;9.50;;
7334;SDS011;3708;42.632;23.378;2023-03-13T10:18:19;15.03;;;9.27;;
7334;SDS011;3708;42.632;23.378;2023-03-13T10:20:48;14.47;;;9.10;;
7334;SDS011;3708;42.632;23.378;2023-03-13T10:23:21;13.97;;;9.53;;
7334;SDS011;3708;42.632;23.378;2023-03-13T10:25:53;17.90;;;10.20;;
7334;SDS011;3708;42.632;23.378;2023-03-13T10:28:19;12.83;;;9.30;;
7334;SDS011;3708;42.632;23.378;2023-03-13T10:30:47;12.07;;;9.50;;
7334;SDS011;3708;42.632;23.378;2023-03-13T10:33:19;15.77;;;9.77;;
7334;SDS011;3708;42.632;23.378;2023-03-13T10:35:58;13.00;;;9.57;;
7334;SDS011;3708;42.632;23.378;2023-03-13T10:38:27;12.97;;;9.73;;
7334;SDS011;3708;42.632;23.378;2023-03-13T10:40:57;14.83;;;8.70;;
7334;SDS011;3708;42.632;23.378;2023-03-13T10:43:26;12.67;;;9.00;;
7334;SDS011;3708;42.632;23.378;2023-03-13T10:45:54;14.80;;;9.63;;
7334;SDS011;3708;42.632;23.378;2023-03-13T10:48:24;15.00;;;8.43;;
7334;SDS011;3708;42.632;23.378;2023-03-13T10:50:58;13.43;;;9.03;;
7334;SDS011;3708;42.632;23.378;2023-03-13T10:53:30;10.70;;;7.90;;
7334;SDS011;3708;42.632;23.378;2023-03-13T10:55:59;10.57;;;8.77;;
7334;SDS011;3708;42.632;23.378;2023-03-13T10:58:32;13.83;;;9.20;;
7334;SDS011;3708;42.632;23.378;2023-03-13T11:01:14;17.47;;;8.57;;
7334;SDS011;3708;42.632;23.378;2023-03-13T11:03:46;14.83;;;7.90;;
7334;SDS011;3708;42.632;23.378;2023-03-13T11:06:24;10.20;;;8.27;;
7334;SDS011;3708;42.632;23.378;2023-03-13T11:11:43;10.97;;;8.03;;
7334;SDS011;3708;42.632;23.378;2023-03-13T11:14:13;11.90;;;7.53;;
7334;SDS011;3708;42.632;23.378;2023-03-13T11:16:46;14.43;;;7.93;;
7334;SDS011;3708;42.632;23.378;2023-03-13T11:22:13;14.90;;;8.43;;
7334;SDS011;3708;42.632;23.378;2023-03-13T11:24:51;9.90;;;7.47;;
7334;SDS011;3708;42.632;23.378;2023-03-13T11:27:31;14.43;;;8.03;;
7334;SDS011;3708;42.632;23.378;2023-03-13T11:30:12;10.07;;;7.37;;
7334;SDS011;3708;42.632;23.378;2023-03-13T11:32:50;10.70;;;7.93;;
7334;SDS011;3708;42.632;23.378;2023-03-13T11:35:25;10.50;;;7.70;;
7334;SDS011;3708;42.632;23.378;2023-03-13T11:38:04;10.90;;;7.47;;
7334;SDS011;3708;42.632;23.378;2023-03-13T11:40:36;11.33;;;8.47;;
7334;SDS011;3708;42.632;23.378;2023-03-13T11:43:16;11.00;;;7.63;;
7334;SDS011;3708;42.632;23.378;2023-03-13T11:45:56;12.60;;;7.23;;
7334;SDS011;3708;42.632;23.378;2023-03-13T11:48:45;8.87;;;7.03;;
7334;SDS011;3708;42.632;23.378;2023-03-13T11:51:28;7.83;;;6.50;;
7334;SDS011;3708;42.632;23.378;2023-03-13T11:54:14;11.33;;;8.07;;
7334;SDS011;3708;42.632;23.378;2023-03-13T11:57:02;13.37;;;7.63;;
7334;SDS011;3708;42.632;23.378;2023-03-13T11:59:34;8.93;;;7.80;;
7334;SDS011;3708;42.632;23.378;2023-03-13T12:02:13;10.07;;;7.70;;
7334;SDS011;3708;42.632;23.378;2023-03-13T12:04:46;10.83;;;8.20;;
7334;SDS011;3708;42.632;23.378;2023-03-13T12:07:22;12.47;;;7.77;;
7334;SDS011;3708;42.632;23.378;2023-03-13T12:09:53;10.53;;;7.73;;
7334;SDS011;3708;42.632;23.378;2023-03-13T12:12:36;12.40;;;7.10;;
7334;SDS011;3708;42.632;23.378;2023-03-13T12:15:15;11.70;;;8.23;;
7334;SDS011;3708;42.632;23.378;2023-03-13T12:17:55;14.90;;;8.03;;
7334;SDS011;3708;42.632;23.378;2023-03-13T12:20:27;13.30;;;7.70;;
7334;SDS011;3708;42.632;23.378;2023-03-13T12:23:13;11.53;;;7.23;;
7334;SDS011;3708;42.632;23.378;2023-03-13T12:25:46;11.23;;;7.50;;
7334;SDS011;3708;42.632;23.378;2023-03-13T12:28:21;13.43;;;7.57;;
7334;SDS011;3708;42.632;23.378;2023-03-13T12:30:59;8.20;;;7.27;;
7334;SDS011;3708;42.632;23.378;2023-03-13T12:33:37;8.10;;;6.90;;
7334;SDS011;3708;42.632;23.378;2023-03-13T12:36:19;9.57;;;6.87;;
7334;SDS011;3708;42.632;23.378;2023-03-13T12:38:56;8.93;;;6.50;;
7334;SDS011;3708;42.632;23.378;2023-03-13T12:41:34;10.87;;;6.80;;
7334;SDS011;3708;42.632;23.378;2023-03-13T12:44:08;8.40;;;6.57;;
7334;SDS011;3708;42.632;23.378;2023-03-13T12:46:41;8.00;;;6.27;;
7334;SDS011;3708;42.632;23.378;2023-03-13T12:58:44;8.83;;;6.57;;
7334;SDS011;3708;42.632;23.378;2023-03-13T13:01:17;9.20;;;6.67;;
7334;SDS011;3708;42.632;23.378;2023-03-13T13:03:59;7.60;;;6.43;;
7334;SDS011;3708;42.632;23.378;2023-03-13T13:09:24;9.90;;;6.50;;
7334;SDS011;3708;42.632;23.378;2023-03-13T13:11:54;13.20;;;7.70;;
7334;SDS011;3708;42.632;23.378;2023-03-13T13:20:33;9.00;;;7.90;;
7334;SDS011;3708;42.632;23.378;2023-03-13T13:23:19;9.47;;;7.40;;
7334;SDS011;3708;42.632;23.378;2023-03-13T13:25:50;10.70;;;7.77;;
7334;SDS011;3708;42.632;23.378;2023-03-13T13:28:33;9.03;;;7.37;;
7334;SDS011;3708;42.632;23.378;2023-03-13T13:31:00;12.20;;;7.23;;
7334;SDS011;3708;42.632;23.378;2023-03-13T13:33:35;12.07;;;8.43;;
7334;SDS011;3708;42.632;23.378;2023-03-13T13:38:56;10.17;;;7.40;;
7334;SDS011;3708;42.632;23.378;2023-03-13T13:41:34;12.97;;;7.27;;
7334;SDS011;3708;42.632;23.378;2023-03-13T13:44:25;11.83;;;8.10;;
7334;SDS011;3708;42.632;23.378;2023-03-13T13:46:58;10.60;;;7.63;;
7334;SDS011;3708;42.632;23.378;2023-03-13T13:49:30;9.53;;;7.77;;
7334;SDS011;3708;42.632;23.378;2023-03-13T13:58:01;10.73;;;7.00;;
7334;SDS011;3708;42.632;23.378;2023-03-13T14:00:40;8.50;;;7.10;;
7334;SDS011;3708;42.632;23.378;2023-03-13T14:03:17;10.73;;;7.67;;
7334;SDS011;3708;42.632;23.378;2023-03-13T14:06:02;9.67;;;7.47;;
7334;SDS011;3708;42.632;23.378;2023-03-13T14:08:47;10.10;;;7.37;;
7334;SDS011;3708;42.632;23.378;2023-03-13T14:11:22;10.90;;;7.53;;
7334;SDS011;3708;42.632;23.378;2023-03-13T14:14:12;11.43;;;8.00;;
7334;SDS011;3708;42.632;23.378;2023-03-13T14:16:45;10.27;;;8.63;;
7334;SDS011;3708;42.632;23.378;2023-03-13T14:22:09;10.27;;;7.40;;
7334;SDS011;3708;42.632;23.378;2023-03-13T14:25:25;9.60;;;7.13;;
7334;SDS011;3708;42.632;23.378;2023-03-13T14:31:04;8.57;;;7.67;;
7334;SDS011;3708;42.632;23.378;2023-03-13T14:33:49;8.13;;;7.33;;
7334;SDS011;3708;42.632;23.378;2023-03-13T14:36:44;10.43;;;7.73;;
7334;SDS011;3708;42.632;23.378;2023-03-13T14:39:19;10.10;;;8.50;;
7334;SDS011;3708;42.632;23.378;2023-03-13T14:42:04;10.03;;;7.87;;
7334;SDS011;3708;42.632;23.378;2023-03-13T14:44:38;8.73;;;7.83;;
7334;SDS011;3708;42.632;23.378;2023-03-13T14:47:27;11.40;;;8.47;;
7334;SDS011;3708;42.632;23.378;2023-03-13T14:49:57;10.70;;;7.97;;
7334;SDS011;3708;42.632;23.378;2023-03-13T14:52:36;8.33;;;7.17;;
7334;SDS011;3708;42.632;23.378;2023-03-13T14:55:26;9.10;;;7.00;;
7334;SDS011;3708;42.632;23.378;2023-03-13T14:58:23;13.97;;;8.03;;
7334;SDS011;3708;42.632;23.378;2023-03-13T15:00:53;9.70;;;6.83;;
7334;SDS011;3708;42.632;23.378;2023-03-13T15:03:30;11.50;;;6.97;;
7334;SDS011;3708;42.632;23.378;2023-03-13T15:06:01;14.03;;;7.77;;
7334;SDS011;3708;42.632;23.378;2023-03-13T15:08:40;10.17;;;8.40;;
7334;SDS011;3708;42.632;23.378;2023-03-13T15:11:20;9.60;;;7.57;;
7334;SDS011;3708;42.632;23.378;2023-03-13T15:17:01;8.57;;;7.00;;
7334;SDS011;3708;42.632;23.378;2023-03-13T15:19:30;12.77;;;7.63;;
7334;SDS011;3708;42.632;23.378;2023-03-13T15:22:04;12.73;;;7.50;;
7334;SDS011;3708;42.632;23.378;2023-03-13T15:24:36;7.90;;;7.10;;
7334;SDS011;3708;42.632;23.378;2023-03-13T15:27:04;14.47;;;8.73;;
7334;SDS011;3708;42.632;23.378;2023-03-13T15:29:40;13.33;;;8.60;;
7334;SDS011;3708;42.632;23.378;2023-03-13T15:32:08;13.37;;;7.80;;
7334;SDS011;3708;42.632;23.378;2023-03-13T15:34:40;10.80;;;7.70;;
7334;SDS011;3708;42.632;23.378;2023-03-13T15:37:09;9.37;;;7.27;;
7334;SDS011;3708;42.632;23.378;2023-03-13T15:39:38;13.83;;;7.77;;
7334;SDS011;3708;42.632;23.378;2023-03-13T15:42:06;14.07;;;7.40;;
7334;SDS011;3708;42.632;23.378;2023-03-13T15:44:35;11.40;;;8.10;;
7334;SDS011;3708;42.632;23.378;2023-03-13T15:47:17;12.67;;;8.67;;
7334;SDS011;3708;42.632;23.378;2023-03-13T15:49:47;15.27;;;8.33;;
7334;SDS011;3708;42.632;23.378;2023-03-13T15:52:16;11.57;;;8.57;;
7334;SDS011;3708;42.632;23.378;2023-03-13T15:54:47;14.60;;;8.10;;